Aérodrome :
LOGIN :

S'inscrire | Disclaimer

   EN    FR    IT 

 










Légende :    VFR   VFR Marginal   IFR   IFR Intensif   IFR Très Intensif
Visi : 
Plafond : 
>= 8 km
>= 3000ft
5 à 8 km
1000 à 3000 ft
1500m à 5 km
500 à 1000 ft
800 à 1500m
200 à 500 ft
< 800m
< 200 ft
Symboles :   Orages  Brouillard  Fortes neiges  Fortes précipitations  Vent > 20 kt
SIGMETs :   Divers  Orages  Givrage  Turbulence  Onde Orograph.  Cendres Volcan.






- Altitude de l'aérodrome : 171 ft
- Code IATA : EGC


LFBE - Bergerac

DERNIER METAR :
  • 280600Z AUTO 25009KT 9999 FEW020 SCT036 BKN070 10/07 Q1013

METARs EXPIRÉS :
  • 280530Z AUTO 25014G25KT 9999 SCT035/// SCT044/// OVC070/// ///TCU 11/07 Q1013
  • 280500Z AUTO 24013KT 9999 FEW022/// SCT028/// BKN037/// ///TCU 10/08 Q1013
  • 280430Z AUTO 23012KT 9999 FEW021 BKN028 BKN034 10/08 Q1012
  • 280400Z AUTO 23013KT 9999 BKN033 OVC050 10/08 Q1012
  • 280330Z AUTO 24009KT 210V270 CAVOK 10/08 Q1012

TAF TAF LFBE
Valide du 28 à 06h jusqu'au 29 à 06h UTC


280500Z 2806/2906 25012KT 9999 BKN030
TEMPO 2806/2818 25015G25KT 4000 SHRA BKN020TCU
PROB40 2900/2906 3000 BR OVC005



MET'MAP, la Météo Aéronautique d'un coup d'oeil ! - Copyright ORBIFLY Décembre 2007 - Disclaimer

ORBIFLY MET'MAP TEAM :

Programmation & Développement : Alexandra Zaïnal
Sur une idée originale de : Baudouin d'Aumeries
Assistance à la programmation : Marc-Olivier Méhu
Soutien technique & logistique : Manuel Goepfert

Contact : metmap@orbifly.com




SOURCES & CREDITS :

   NOAA